Time;durP1;ratioP1;P1;durP2;ratioP2;P2;SDS_P1;SDS_P2;PMS_P1;PMS_P2;Temp;Humidity;BMP_temperature;BMP_pressure;BME280_temperature;BME280_humidity;BME280_pressure;Samples;Min_cycle;Max_cycle;Signal;HPM_P1;HPM_P2
2022/09/28 00:00:46;;;;;;;1.50;1.40;;;;;;;;;;620246;230;26827;-66
2022/09/28 00:03:11;;;;;;;1.10;1.10;;;;;;;;;;618802;231;26590;-66
2022/09/28 00:05:40;;;;;;;1.30;1.20;;;;;;;;;;616336;231;26833;-66
2022/09/28 00:08:08;;;;;;;1.12;1.10;;;;;;;;;;619149;231;26580;-65
2022/09/28 00:10:38;;;;;;;1.30;1.20;;;;;;;;;;615852;233;26619;-65
2022/09/28 00:13:06;;;;;;;1.50;1.20;;;;;;;;;;615477;233;26643;-66
2022/09/28 00:15:35;;;;;;;7.93;1.40;;;;;;;;;;612481;231;26540;-66
2022/09/28 00:18:04;;;;;;;3.15;1.40;;;;;;;;;;614581;231;26566;-66
2022/09/28 00:20:33;;;;;;;1.45;1.40;;;;;;;;;;621005;231;26583;-66
2022/09/28 00:23:01;;;;;;;1.45;1.35;;;;;;;;;;620923;231;27269;-66
2022/09/28 00:25:31;;;;;;;1.85;1.30;;;;;;;;;;616311;231;26612;-66
2022/09/28 00:27:59;;;;;;;1.23;1.00;;;;;;;;;;618555;231;26807;-66
2022/09/28 00:30:28;;;;;;;1.95;1.20;;;;;;;;;;617463;231;26617;-66
2022/09/28 00:32:57;;;;;;;1.37;1.20;;;;;;;;;;615378;231;26640;-66
2022/09/28 00:35:26;;;;;;;1.27;1.00;;;;;;;;;;617737;231;26594;-66
2022/09/28 00:37:56;;;;;;;1.30;1.30;;;;;;;;;;613813;231;26584;-66
2022/09/28 00:40:24;;;;;;;1.83;1.30;;;;;;;;;;618497;231;26818;-66
2022/09/28 00:42:53;;;;;;;1.20;1.10;;;;;;;;;;614241;234;26549;-67
2022/09/28 00:45:23;;;;;;;1.20;1.20;;;;;;;;;;615668;231;26590;-66
2022/09/28 00:47:51;;;;;;;1.50;1.00;;;;;;;;;;612753;235;26605;-66
2022/09/28 00:50:24;;;;;;;1.33;1.20;;;;;;;;;;613467;232;26596;-66
2022/09/28 00:52:53;;;;;;;1.40;1.30;;;;;;;;;;622336;231;26588;-66
2022/09/28 00:55:22;;;;;;;1.17;1.10;;;;;;;;;;620247;230;26751;-66
2022/09/28 00:57:52;;;;;;;1.05;1.05;;;;;;;;;;621548;231;26572;-66
2022/09/28 01:00:21;;;;;;;2.35;1.50;;;;;;;;;;616447;231;26638;-66
2022/09/28 01:02:49;;;;;;;1.30;1.27;;;;;;;;;;621545;231;26602;-66
2022/09/28 01:05:18;;;;;;;1.20;1.20;;;;;;;;;;616467;231;26802;-65
2022/09/28 01:07:47;;;;;;;1.17;0.98;;;;;;;;;;614613;233;26566;-66
2022/09/28 01:10:17;;;;;;;1.42;0.80;;;;;;;;;;618710;231;26860;-66
2022/09/28 01:12:46;;;;;;;1.10;1.10;;;;;;;;;;617255;230;26572;-65
2022/09/28 01:15:14;;;;;;;1.50;1.40;;;;;;;;;;618040;231;26531;-65
2022/09/28 01:17:43;;;;;;;1.08;1.05;;;;;;;;;;620833;231;26562;-65
2022/09/28 01:20:12;;;;;;;1.58;1.20;;;;;;;;;;616020;230;26829;-66
2022/09/28 01:22:44;;;;;;;0.95;0.95;;;;;;;;;;612717;231;26587;-65
2022/09/28 01:25:13;;;;;;;1.17;1.17;;;;;;;;;;615206;233;26846;-66
2022/09/28 01:27:42;;;;;;;1.20;1.20;;;;;;;;;;611953;231;26648;-61
2022/09/28 01:30:11;;;;;;;0.90;0.90;;;;;;;;;;614875;234;26578;-61
2022/09/28 01:32:47;;;;;;;1.02;1.00;;;;;;;;;;613245;231;26622;-62
2022/09/28 01:35:16;;;;;;;0.90;0.90;;;;;;;;;;614370;231;26627;-61
2022/09/28 01:37:46;;;;;;;1.00;1.00;;;;;;;;;;618906;231;26778;-61
2022/09/28 01:40:14;;;;;;;1.45;1.10;;;;;;;;;;619043;231;26576;-61
2022/09/28 01:42:43;;;;;;;1.10;1.10;;;;;;;;;;619013;231;26557;-61
2022/09/28 01:45:14;;;;;;;1.02;1.02;;;;;;;;;;615548;234;26577;-62
2022/09/28 01:47:43;;;;;;;0.80;0.80;;;;;;;;;;614316;234;26576;-62
2022/09/28 01:50:11;;;;;;;1.27;1.17;;;;;;;;;;612486;231;26620;-61
2022/09/28 01:52:50;;;;;;;1.20;1.10;;;;;;;;;;612391;234;26609;-62
2022/09/28 01:55:33;;;;;;;0.90;0.90;;;;;;;;;;617405;231;26607;-62
2022/09/28 01:58:07;;;;;;;0.90;0.90;;;;;;;;;;616640;231;26625;-61
2022/09/28 02:00:36;;;;;;;1.10;1.10;;;;;;;;;;613626;231;26673;-62
2022/09/28 02:03:05;;;;;;;1.27;1.10;;;;;;;;;;620439;231;26864;-61
2022/09/28 02:05:34;;;;;;;0.90;0.90;;;;;;;;;;617888;231;26612;-61
2022/09/28 02:08:03;;;;;;;1.20;1.10;;;;;;;;;;614995;233;26580;-62
2022/09/28 02:10:33;;;;;;;0.90;0.90;;;;;;;;;;622604;230;26811;-62
2022/09/28 02:13:03;;;;;;;0.98;0.98;;;;;;;;;;620802;230;27321;-61
2022/09/28 02:15:33;;;;;;;1.27;1.05;;;;;;;;;;619174;231;26613;-62
2022/09/28 02:18:02;;;;;;;1.10;1.10;;;;;;;;;;617643;231;26657;-61
2022/09/28 02:20:31;;;;;;;1.10;1.10;;;;;;;;;;617683;230;26629;-61
2022/09/28 02:23:01;;;;;;;1.08;1.08;;;;;;;;;;621413;230;26826;-61
2022/09/28 02:25:30;;;;;;;1.27;0.98;;;;;;;;;;621380;230;26563;-61
2022/09/28 02:27:59;;;;;;;0.90;0.90;;;;;;;;;;613163;230;26583;-61
2022/09/28 02:30:29;;;;;;;1.40;1.20;;;;;;;;;;618101;231;26556;-61
2022/09/28 02:32:58;;;;;;;1.35;0.98;;;;;;;;;;614216;230;26570;-61
2022/09/28 02:35:27;;;;;;;1.35;1.25;;;;;;;;;;614883;231;26571;-61
2022/09/28 02:37:56;;;;;;;0.82;0.82;;;;;;;;;;617885;231;26778;-61
2022/09/28 02:40:25;;;;;;;0.90;0.90;;;;;;;;;;613711;234;26553;-61
2022/09/28 02:42:58;;;;;;;1.23;1.00;;;;;;;;;;613418;228;26567;-61
2022/09/28 02:45:28;;;;;;;0.80;0.80;;;;;;;;;;612315;234;26571;-61
2022/09/28 02:48:01;;;;;;;0.80;0.80;;;;;;;;;;613322;234;26762;-61
2022/09/28 02:50:35;;;;;;;0.90;0.90;;;;;;;;;;615123;234;26814;-62
2022/09/28 02:53:07;;;;;;;1.05;0.95;;;;;;;;;;615543;234;26591;-61
2022/09/28 02:55:39;;;;;;;1.20;0.93;;;;;;;;;;621602;231;26619;-62
2022/09/28 02:58:10;;;;;;;0.90;0.90;;;;;;;;;;618289;231;27008;-62
2022/09/28 03:00:40;;;;;;;0.90;0.90;;;;;;;;;;615780;231;26622;-61
2022/09/28 03:03:12;;;;;;;0.90;0.90;;;;;;;;;;614146;231;26813;-62
2022/09/28 03:05:46;;;;;;;1.00;1.00;;;;;;;;;;615100;234;26802;-61
2022/09/28 03:08:30;;;;;;;0.98;0.98;;;;;;;;;;615202;234;26584;-61
2022/09/28 03:11:00;;;;;;;0.93;0.90;;;;;;;;;;612159;235;26618;-61
2022/09/28 03:13:29;;;;;;;0.85;0.85;;;;;;;;;;613543;232;26642;-61
2022/09/28 03:16:03;;;;;;;0.88;0.88;;;;;;;;;;614185;230;26828;-61
2022/09/28 03:18:32;;;;;;;0.90;0.90;;;;;;;;;;618620;231;27211;-61
2022/09/28 03:21:01;;;;;;;1.83;1.08;;;;;;;;;;621255;231;26568;-62
2022/09/28 03:23:30;;;;;;;10.20;1.12;;;;;;;;;;618631;230;26693;-61
2022/09/28 03:26:00;;;;;;;1.00;1.00;;;;;;;;;;616054;230;26643;-61
2022/09/28 03:28:29;;;;;;;1.83;0.88;;;;;;;;;;616214;232;26791;-61
2022/09/28 03:30:58;;;;;;;1.08;1.08;;;;;;;;;;615396;231;26571;-61
2022/09/28 03:33:26;;;;;;;1.15;0.98;;;;;;;;;;618135;230;26829;-61
2022/09/28 03:35:55;;;;;;;0.82;0.82;;;;;;;;;;620611;230;26572;-61
2022/09/28 03:38:24;;;;;;;0.93;0.93;;;;;;;;;;618744;230;26847;-61
2022/09/28 03:40:53;;;;;;;1.00;1.00;;;;;;;;;;619480;230;26572;-60
2022/09/28 03:43:22;;;;;;;0.90;0.70;;;;;;;;;;616705;231;26545;-60
2022/09/28 03:45:54;;;;;;;0.90;0.90;;;;;;;;;;619107;230;26576;-60
2022/09/28 03:48:23;;;;;;;2.60;0.85;;;;;;;;;;615103;231;26836;-60
2022/09/28 03:50:53;;;;;;;1.00;1.00;;;;;;;;;;613834;234;26564;-60
2022/09/28 03:53:22;;;;;;;0.93;0.93;;;;;;;;;;614284;231;26584;-60
2022/09/28 03:55:52;;;;;;;1.23;1.10;;;;;;;;;;613310;233;27207;-60
2022/09/28 03:58:19;;;;;;;1.60;0.93;;;;;;;;;;612458;235;26624;-60
2022/09/28 04:00:48;;;;;;;0.82;0.82;;;;;;;;;;620556;231;26794;-60
2022/09/28 04:03:17;;;;;;;1.67;1.00;;;;;;;;;;616844;231;26638;-60
2022/09/28 04:05:47;;;;;;;0.90;0.90;;;;;;;;;;612675;228;26566;-60
2022/09/28 04:08:16;;;;;;;0.88;0.88;;;;;;;;;;612385;234;26641;-60
2022/09/28 04:10:44;;;;;;;1.12;0.90;;;;;;;;;;622287;231;26842;-60
2022/09/28 04:13:13;;;;;;;1.62;0.90;;;;;;;;;;623614;231;26580;-60
2022/09/28 04:15:42;;;;;;;1.00;1.00;;;;;;;;;;616390;231;26778;-60
2022/09/28 04:18:12;;;;;;;1.17;1.02;;;;;;;;;;614135;231;26863;-60
2022/09/28 04:20:44;;;;;;;1.27;0.95;;;;;;;;;;612457;234;26573;-60
2022/09/28 04:23:10;;;;;;;1.05;1.02;;;;;;;;;;612381;231;26613;-62
2022/09/28 04:25:38;;;;;;;3.35;0.98;;;;;;;;;;613974;232;26600;-60
2022/09/28 04:30:42;;;;;;;2.15;1.27;;;;;;;;;;616814;231;27281;-61
2022/09/28 04:33:11;;;;;;;2.53;1.10;;;;;;;;;;616849;230;26583;-60
2022/09/28 04:35:39;;;;;;;4.45;1.10;;;;;;;;;;616270;233;26539;-60
2022/09/28 04:38:08;;;;;;;1.87;1.30;;;;;;;;;;616294;233;26567;-60
2022/09/28 04:40:37;;;;;;;2.05;1.60;;;;;;;;;;616201;233;26564;-60
2022/09/28 04:43:06;;;;;;;4.18;2.22;;;;;;;;;;616101;233;26797;-60
2022/09/28 04:45:35;;;;;;;10.95;3.80;;;;;;;;;;615811;231;26559;-60
2022/09/28 04:48:04;;;;;;;8.82;3.60;;;;;;;;;;612795;234;26806;-60
2022/09/28 04:50:33;;;;;;;8.15;3.58;;;;;;;;;;612742;233;26576;-60
2022/09/28 04:53:01;;;;;;;5.00;2.70;;;;;;;;;;612735;233;26590;-60
2022/09/28 04:55:31;;;;;;;5.50;2.83;;;;;;;;;;612740;233;26550;-60
2022/09/28 04:58:01;;;;;;;2.97;2.50;;;;;;;;;;612767;234;26593;-60
2022/09/28 05:00:31;;;;;;;2.67;2.20;;;;;;;;;;612662;234;26605;-60
2022/09/28 05:02:59;;;;;;;3.85;2.60;;;;;;;;;;612691;235;26853;-60
2022/09/28 05:05:27;;;;;;;2.40;2.20;;;;;;;;;;612504;234;26608;-59
2022/09/28 05:07:56;;;;;;;5.47;2.17;;;;;;;;;;615064;231;26821;-60
2022/09/28 05:10:25;;;;;;;4.50;2.60;;;;;;;;;;614251;234;26564;-60
2022/09/28 05:12:54;;;;;;;4.43;2.10;;;;;;;;;;620628;231;26590;-60
2022/09/28 05:15:23;;;;;;;2.20;2.00;;;;;;;;;;613329;231;26621;-60
2022/09/28 05:17:52;;;;;;;2.60;1.70;;;;;;;;;;614587;234;26576;-60
2022/09/28 05:20:21;;;;;;;3.65;1.95;;;;;;;;;;614144;234;27291;-60
2022/09/28 05:22:50;;;;;;;2.08;1.92;;;;;;;;;;614986;234;26577;-60
2022/09/28 05:25:19;;;;;;;2.25;1.80;;;;;;;;;;613776;234;26892;-60
2022/09/28 05:27:48;;;;;;;2.25;1.98;;;;;;;;;;613502;234;26568;-60
2022/09/28 05:30:17;;;;;;;1.87;1.77;;;;;;;;;;617402;231;26583;-60
2022/09/28 05:32:45;;;;;;;1.87;1.70;;;;;;;;;;620408;231;26617;-61
2022/09/28 05:35:14;;;;;;;8.25;1.73;;;;;;;;;;618765;227;26573;-60
2022/09/28 05:37:43;;;;;;;2.00;1.45;;;;;;;;;;615865;230;26719;-60
2022/09/28 05:40:12;;;;;;;1.75;1.50;;;;;;;;;;615871;230;26603;-61
2022/09/28 05:42:41;;;;;;;1.67;1.58;;;;;;;;;;617799;230;26820;-60
2022/09/28 05:45:10;;;;;;;3.65;1.70;;;;;;;;;;615949;230;26573;-60
2022/09/28 05:47:38;;;;;;;1.67;1.58;;;;;;;;;;617613;230;26919;-60
2022/09/28 05:50:08;;;;;;;1.70;1.60;;;;;;;;;;619178;231;26622;-60
2022/09/28 05:52:37;;;;;;;1.60;1.50;;;;;;;;;;615067;233;26797;-60
2022/09/28 05:55:06;;;;;;;1.60;1.50;;;;;;;;;;617665;231;26563;-60
2022/09/28 05:57:35;;;;;;;1.55;1.45;;;;;;;;;;616393;230;27140;-60
2022/09/28 06:00:04;;;;;;;1.80;1.70;;;;;;;;;;613004;231;26532;-60
2022/09/28 06:02:33;;;;;;;1.80;1.70;;;;;;;;;;615095;231;26561;-60
2022/09/28 06:05:02;;;;;;;3.25;1.80;;;;;;;;;;616506;231;26611;-61
2022/09/28 06:07:30;;;;;;;4.05;1.65;;;;;;;;;;614313;231;26553;-61
2022/09/28 06:09:59;;;;;;;1.70;1.60;;;;;;;;;;619201;230;26811;-60
2022/09/28 06:12:28;;;;;;;1.50;1.50;;;;;;;;;;616759;231;26592;-60
2022/09/28 06:15:00;;;;;;;1.50;1.50;;;;;;;;;;615998;231;26803;-60
2022/09/28 06:17:26;;;;;;;1.90;1.80;;;;;;;;;;613606;231;26553;-60
2022/09/28 06:19:55;;;;;;;2.08;1.45;;;;;;;;;;613056;231;26567;-60
2022/09/28 06:22:23;;;;;;;1.73;1.62;;;;;;;;;;614758;231;26585;-60
2022/09/28 06:24:52;;;;;;;2.78;2.00;;;;;;;;;;614133;234;26623;-60
2022/09/28 06:27:21;;;;;;;1.50;1.40;;;;;;;;;;618032;231;27173;-60
2022/09/28 06:29:50;;;;;;;1.37;1.27;;;;;;;;;;614448;231;26588;-60
2022/09/28 06:32:19;;;;;;;1.75;1.65;;;;;;;;;;613718;234;26930;-60
2022/09/28 06:34:48;;;;;;;1.20;1.20;;;;;;;;;;612645;234;26602;-60
2022/09/28 06:37:16;;;;;;;1.30;1.30;;;;;;;;;;620400;231;26635;-60
2022/09/28 06:39:45;;;;;;;2.78;1.70;;;;;;;;;;617960;231;26605;-60
2022/09/28 06:42:17;;;;;;;1.50;1.40;;;;;;;;;;616454;231;26608;-60
2022/09/28 06:44:45;;;;;;;1.70;1.60;;;;;;;;;;613824;231;26585;-60
2022/09/28 06:47:13;;;;;;;3.05;1.75;;;;;;;;;;619716;231;26615;-60
2022/09/28 06:49:41;;;;;;;1.50;1.40;;;;;;;;;;617486;231;27351;-60
2022/09/28 06:52:10;;;;;;;1.58;1.48;;;;;;;;;;615762;230;26546;-60
2022/09/28 06:54:38;;;;;;;3.05;1.90;;;;;;;;;;616447;231;26884;-60
2022/09/28 06:57:07;;;;;;;1.85;1.58;;;;;;;;;;614924;231;26567;-60
2022/09/28 06:59:37;;;;;;;1.52;1.42;;;;;;;;;;619153;231;26533;-60
2022/09/28 07:02:06;;;;;;;11.38;1.83;;;;;;;;;;617805;228;26673;-60
2022/09/28 07:04:34;;;;;;;6.20;1.77;;;;;;;;;;617696;230;26609;-61
2022/09/28 07:07:03;;;;;;;5.62;1.87;;;;;;;;;;617035;230;26773;-61
2022/09/28 07:09:32;;;;;;;67.62;12.52;;;;;;;;;;617742;231;26575;-61
2022/09/28 07:12:02;;;;;;;1663.35;179.90;;;;;;;;;;614369;231;26803;-61
2022/09/28 07:14:30;;;;;;;1999.90;676.03;;;;;;;;;;614139;233;26563;-61
2022/09/28 07:16:58;;;;;;;1999.90;668.37;;;;;;;;;;618498;231;26550;-60
2022/09/28 07:19:27;;;;;;;1999.90;191.73;;;;;;;;;;618494;230;26802;-60
2022/09/28 07:21:56;;;;;;;157.75;19.23;;;;;;;;;;616777;230;26553;-60
2022/09/28 07:24:25;;;;;;;11.88;7.60;;;;;;;;;;613553;234;26587;-61
2022/09/28 07:26:54;;;;;;;20.75;9.43;;;;;;;;;;612645;231;27280;-60
2022/09/28 07:29:22;;;;;;;31.60;12.93;;;;;;;;;;615140;231;26560;-61
2022/09/28 07:31:51;;;;;;;28.75;11.10;;;;;;;;;;614407;231;26832;-61
2022/09/28 07:34:21;;;;;;;34.75;13.52;;;;;;;;;;616547;231;26633;-61
2022/09/28 07:36:50;;;;;;;14.35;6.78;;;;;;;;;;615582;231;26574;-60
2022/09/28 07:39:18;;;;;;;15.40;6.87;;;;;;;;;;617104;231;26905;-61
2022/09/28 07:41:47;;;;;;;18.98;7.80;;;;;;;;;;614776;234;26572;-60
2022/09/28 07:44:17;;;;;;;15.90;7.47;;;;;;;;;;613647;231;26551;-61
2022/09/28 07:46:45;;;;;;;15.43;7.37;;;;;;;;;;616931;231;26601;-61
2022/09/28 07:49:18;;;;;;;8.70;4.50;;;;;;;;;;617684;231;26580;-60
2022/09/28 07:51:44;;;;;;;7.82;4.10;;;;;;;;;;613718;231;26582;-60
2022/09/28 07:54:13;;;;;;;10.02;4.95;;;;;;;;;;615553;231;26614;-61
2022/09/28 07:56:42;;;;;;;7.05;4.25;;;;;;;;;;614665;231;26541;-61
2022/09/28 07:59:11;;;;;;;8.38;5.28;;;;;;;;;;616495;231;26567;-60
2022/09/28 08:01:40;;;;;;;8.75;4.70;;;;;;;;;;615408;231;26836;-61
2022/09/28 08:04:09;;;;;;;8.68;4.10;;;;;;;;;;615964;230;26586;-61
2022/09/28 08:06:39;;;;;;;7.03;4.05;;;;;;;;;;616473;231;26797;-60
2022/09/28 08:09:06;;;;;;;8.13;3.80;;;;;;;;;;615745;231;26535;-61
2022/09/28 08:11:35;;;;;;;6.78;3.22;;;;;;;;;;617814;230;26612;-60
2022/09/28 08:14:04;;;;;;;4.28;3.00;;;;;;;;;;618001;230;26621;-61
2022/09/28 08:16:33;;;;;;;4.47;2.05;;;;;;;;;;618212;231;26602;-61
2022/09/28 08:19:02;;;;;;;4.35;2.65;;;;;;;;;;616940;231;26587;-61
2022/09/28 08:24:05;;;;;;;2.30;2.20;;;;;;;;;;615670;233;26632;-60
2022/09/28 08:26:34;;;;;;;5.78;2.60;;;;;;;;;;618496;230;26791;-59
2022/09/28 08:29:03;;;;;;;4.95;2.67;;;;;;;;;;616701;230;26546;-60
2022/09/28 08:31:32;;;;;;;2.70;2.37;;;;;;;;;;619875;230;26775;-60
2022/09/28 08:34:01;;;;;;;2.30;2.08;;;;;;;;;;619510;230;26807;-60
2022/09/28 08:36:30;;;;;;;8.45;2.30;;;;;;;;;;613845;231;26568;-61
2022/09/28 08:38:59;;;;;;;5.47;2.40;;;;;;;;;;616797;231;27215;-59
2022/09/28 08:41:43;;;;;;;3.97;2.37;;;;;;;;;;614657;231;26555;-60
2022/09/28 08:44:12;;;;;;;10.60;2.47;;;;;;;;;;615712;231;27278;-62
2022/09/28 08:46:42;;;;;;;6.12;2.30;;;;;;;;;;616257;230;26593;-61
2022/09/28 08:49:10;;;;;;;4.75;2.25;;;;;;;;;;613542;231;26852;-61
2022/09/28 08:51:55;;;;;;;8.88;2.55;;;;;;;;;;614257;234;26568;-61
2022/09/28 08:54:28;;;;;;;5.28;2.40;;;;;;;;;;613574;234;26587;-60
2022/09/28 08:57:01;;;;;;;2.95;2.67;;;;;;;;;;622810;231;26572;-61
2022/09/28 08:59:29;;;;;;;4.07;2.58;;;;;;;;;;621657;231;26527;-61
2022/09/28 09:01:58;;;;;;;5.10;2.55;;;;;;;;;;615225;231;26925;-62
2022/09/28 09:04:27;;;;;;;47.13;10.73;;;;;;;;;;613295;231;26632;-61
2022/09/28 09:07:16;;;;;;;66.37;15.32;;;;;;;;;;615333;231;26758;-60
2022/09/28 09:10:01;;;;;;;47.92;13.15;;;;;;;;;;617379;231;26663;-61
2022/09/28 09:12:33;;;;;;;38.67;11.75;;;;;;;;;;616505;229;26661;-60
2022/09/28 09:15:17;;;;;;;39.67;11.45;;;;;;;;;;613654;233;26820;-60
2022/09/28 09:17:47;;;;;;;15.60;5.47;;;;;;;;;;617436;231;26661;-60
2022/09/28 09:20:19;;;;;;;22.65;6.68;;;;;;;;;;614358;233;26614;-60
2022/09/28 09:22:50;;;;;;;18.55;6.60;;;;;;;;;;619500;230;26630;-62
2022/09/28 09:25:19;;;;;;;15.95;5.25;;;;;;;;;;613545;230;26638;-61
2022/09/28 09:27:48;;;;;;;11.90;4.07;;;;;;;;;;614789;230;26567;-60
2022/09/28 09:30:17;;;;;;;12.52;4.97;;;;;;;;;;613416;231;26612;-60
2022/09/28 09:32:46;;;;;;;5.50;3.30;;;;;;;;;;615360;231;26827;-61
2022/09/28 09:35:15;;;;;;;12.27;3.92;;;;;;;;;;619336;230;26579;-60
2022/09/28 09:37:44;;;;;;;6.50;2.70;;;;;;;;;;615951;230;26796;-61
2022/09/28 09:40:32;;;;;;;4.53;2.17;;;;;;;;;;616406;230;26528;-61
2022/09/28 09:43:04;;;;;;;4.97;2.97;;;;;;;;;;615408;230;26558;-61
2022/09/28 09:45:34;;;;;;;8.30;2.70;;;;;;;;;;619181;230;26543;-60
2022/09/28 09:48:03;;;;;;;12.43;2.30;;;;;;;;;;617053;231;26587;-60
2022/09/28 09:50:32;;;;;;;3.70;2.28;;;;;;;;;;614145;234;26548;-60
2022/09/28 09:53:02;;;;;;;5.05;2.33;;;;;;;;;;615820;231;26628;-60
2022/09/28 09:55:33;;;;;;;5.40;2.30;;;;;;;;;;617289;231;26780;-60
2022/09/28 09:58:02;;;;;;;3.85;2.28;;;;;;;;;;615145;234;26548;-60
2022/09/28 10:00:31;;;;;;;3.78;1.80;;;;;;;;;;614698;231;26576;-60
2022/09/28 10:03:01;;;;;;;2.37;2.10;;;;;;;;;;615248;231;26653;-60
2022/09/28 10:05:29;;;;;;;3.42;2.28;;;;;;;;;;617660;231;26838;-60
2022/09/28 10:07:58;;;;;;;2.83;2.20;;;;;;;;;;613854;231;26622;-62
2022/09/28 10:10:26;;;;;;;12.75;2.97;;;;;;;;;;613660;231;26582;-61
2022/09/28 10:12:55;;;;;;;6.12;2.25;;;;;;;;;;615403;231;26790;-60
2022/09/28 10:15:24;;;;;;;6.60;2.42;;;;;;;;;;619175;231;26591;-60
2022/09/28 10:17:53;;;;;;;6.22;2.40;;;;;;;;;;614990;231;26605;-60
2022/09/28 10:20:23;;;;;;;5.93;2.22;;;;;;;;;;613862;231;26642;-60
2022/09/28 10:22:51;;;;;;;5.62;2.08;;;;;;;;;;622880;228;26605;-60
2022/09/28 10:25:20;;;;;;;3.70;2.22;;;;;;;;;;618370;230;26638;-60
2022/09/28 10:27:50;;;;;;;5.25;2.40;;;;;;;;;;616015;233;26823;-60
2022/09/28 10:30:18;;;;;;;4.45;2.10;;;;;;;;;;614747;231;26542;-60
2022/09/28 10:32:47;;;;;;;4.05;1.85;;;;;;;;;;622580;230;26613;-59
2022/09/28 10:35:30;;;;;;;4.90;2.17;;;;;;;;;;615473;228;26584;-59
2022/09/28 10:38:02;;;;;;;1.98;1.70;;;;;;;;;;615503;230;26590;-59
2022/09/28 10:40:43;;;;;;;3.72;1.70;;;;;;;;;;614997;231;26638;-58
2022/09/28 10:43:18;;;;;;;3.30;1.67;;;;;;;;;;621106;231;26835;-59
2022/09/28 10:45:47;;;;;;;3.90;2.20;;;;;;;;;;614721;231;26903;-59
2022/09/28 10:48:16;;;;;;;4.47;2.30;;;;;;;;;;615907;233;26615;-59
2022/09/28 10:50:45;;;;;;;1.70;1.60;;;;;;;;;;614543;233;26844;-59
2022/09/28 10:53:15;;;;;;;3.42;2.00;;;;;;;;;;615552;231;26617;-59
2022/09/28 10:55:44;;;;;;;3.28;2.00;;;;;;;;;;618885;230;26808;-60
2022/09/28 10:58:17;;;;;;;2.50;1.90;;;;;;;;;;620552;231;26553;-59
2022/09/28 11:00:46;;;;;;;2.95;2.08;;;;;;;;;;620587;231;26562;-59
2022/09/28 11:03:22;;;;;;;4.32;3.17;;;;;;;;;;616453;231;26889;-59
2022/09/28 11:05:52;;;;;;;3.65;2.53;;;;;;;;;;612378;235;26633;-59
2022/09/28 11:08:21;;;;;;;3.28;2.97;;;;;;;;;;612439;234;26600;-59
2022/09/28 11:10:50;;;;;;;5.57;3.08;;;;;;;;;;612279;235;26649;-59
2022/09/28 11:13:18;;;;;;;3.22;2.60;;;;;;;;;;611735;235;26645;-59
2022/09/28 11:15:49;;;;;;;3.42;2.70;;;;;;;;;;612480;228;26883;-59
2022/09/28 11:18:19;;;;;;;2.75;2.50;;;;;;;;;;613577;231;26570;-59
2022/09/28 11:20:48;;;;;;;3.42;2.00;;;;;;;;;;612827;230;26961;-60
2022/09/28 11:23:17;;;;;;;2.70;2.15;;;;;;;;;;616827;231;26583;-62
2022/09/28 11:25:51;;;;;;;2.90;1.90;;;;;;;;;;616398;231;26816;-59
2022/09/28 11:28:20;;;;;;;2.62;1.92;;;;;;;;;;617814;231;26563;-59
2022/09/28 11:30:50;;;;;;;2.40;2.20;;;;;;;;;;615113;231;26782;-59
2022/09/28 11:33:19;;;;;;;2.67;2.28;;;;;;;;;;613949;231;26574;-59
2022/09/28 11:36:02;;;;;;;2.42;2.12;;;;;;;;;;615115;231;26591;-59
2022/09/28 11:38:33;;;;;;;2.65;2.45;;;;;;;;;;616330;231;26628;-59
2022/09/28 11:41:08;;;;;;;2.97;2.67;;;;;;;;;;618104;230;26581;-59
2022/09/28 11:43:37;;;;;;;2.45;2.35;;;;;;;;;;619300;230;26657;-59
2022/09/28 11:46:07;;;;;;;2.83;2.62;;;;;;;;;;617613;230;26875;-60
2022/09/28 11:48:36;;;;;;;3.17;2.70;;;;;;;;;;615486;231;26588;-60
2022/09/28 11:51:07;;;;;;;2.65;2.05;;;;;;;;;;618556;230;26629;-60
2022/09/28 11:53:36;;;;;;;2.55;2.20;;;;;;;;;;615743;230;26837;-60
2022/09/28 11:56:06;;;;;;;3.45;2.40;;;;;;;;;;613207;233;26802;-60
2022/09/28 11:58:34;;;;;;;2.30;2.20;;;;;;;;;;619714;230;26562;-58
2022/09/28 12:01:04;;;;;;;2.33;2.15;;;;;;;;;;622169;230;26566;-58
2022/09/28 12:03:33;;;;;;;2.30;2.20;;;;;;;;;;619135;230;26858;-60
2022/09/28 12:06:04;;;;;;;1.80;1.70;;;;;;;;;;614703;230;26529;-60
2022/09/28 12:08:33;;;;;;;2.65;1.90;;;;;;;;;;614941;230;26798;-60
2022/09/28 12:11:01;;;;;;;1.90;1.80;;;;;;;;;;621964;231;26588;-60
2022/09/28 12:13:32;;;;;;;2.53;2.20;;;;;;;;;;620010;231;26658;-59
2022/09/28 12:16:00;;;;;;;3.12;2.47;;;;;;;;;;614441;229;27197;-59
2022/09/28 12:18:29;;;;;;;2.80;2.60;;;;;;;;;;619931;231;26613;-60
2022/09/28 12:20:58;;;;;;;2.37;2.17;;;;;;;;;;613689;234;26538;-60
2022/09/28 12:23:27;;;;;;;2.50;2.30;;;;;;;;;;614273;231;26606;-60
2022/09/28 12:25:57;;;;;;;2.03;1.90;;;;;;;;;;615015;234;26573;-60
2022/09/28 12:28:27;;;;;;;2.00;1.90;;;;;;;;;;615968;231;26573;-60
2022/09/28 12:30:56;;;;;;;2.50;2.30;;;;;;;;;;622855;230;26641;-60
2022/09/28 12:33:25;;;;;;;2.22;2.03;;;;;;;;;;615114;231;26640;-60
2022/09/28 12:36:06;;;;;;;2.55;2.10;;;;;;;;;;614903;231;26798;-61
2022/09/28 12:38:49;;;;;;;2.20;1.80;;;;;;;;;;617366;231;26659;-60
2022/09/28 12:41:31;;;;;;;2.22;1.70;;;;;;;;;;615560;230;26624;-60
2022/09/28 12:44:03;;;;;;;2.58;2.22;;;;;;;;;;616339;231;26650;-60
2022/09/28 12:46:33;;;;;;;2.22;1.80;;;;;;;;;;617909;229;26638;-60
2022/09/28 12:49:16;;;;;;;2.10;2.00;;;;;;;;;;615553;233;26591;-60
2022/09/28 12:51:47;;;;;;;1.87;1.70;;;;;;;;;;612281;233;26835;-60
2022/09/28 12:54:17;;;;;;;1.90;1.80;;;;;;;;;;618111;231;26554;-60
2022/09/28 12:56:52;;;;;;;1.95;1.85;;;;;;;;;;622931;230;26779;-60
2022/09/28 12:59:22;;;;;;;2.05;1.92;;;;;;;;;;617285;230;26764;-60
2022/09/28 13:01:51;;;;;;;3.20;1.70;;;;;;;;;;616943;230;26526;-60
2022/09/28 13:04:36;;;;;;;2.67;1.75;;;;;;;;;;617805;230;26576;-60
2022/09/28 13:07:05;;;;;;;1.70;1.60;;;;;;;;;;606595;230;26649;-60
2022/09/28 13:09:33;;;;;;;2.10;1.95;;;;;;;;;;614463;231;26877;-61
2022/09/28 13:12:02;;;;;;;1.70;1.60;;;;;;;;;;618179;230;26557;-61
2022/09/28 13:14:33;;;;;;;1.85;1.52;;;;;;;;;;619113;231;26603;-61
2022/09/28 13:17:02;;;;;;;1.58;1.35;;;;;;;;;;613714;233;26635;-60
2022/09/28 13:19:35;;;;;;;1.30;1.20;;;;;;;;;;612867;233;26601;-59
2022/09/28 13:22:03;;;;;;;1.20;1.20;;;;;;;;;;614472;231;26825;-59
2022/09/28 13:24:32;;;;;;;1.70;1.60;;;;;;;;;;614168;231;26636;-59
2022/09/28 13:27:03;;;;;;;1.95;1.60;;;;;;;;;;612399;235;26568;-59
2022/09/28 13:29:30;;;;;;;1.37;1.25;;;;;;;;;;611950;235;26649;-59
2022/09/28 13:31:58;;;;;;;1.50;1.50;;;;;;;;;;612500;234;26615;-59
2022/09/28 13:34:27;;;;;;;1.58;1.48;;;;;;;;;;612483;235;26595;-59
2022/09/28 13:37:02;;;;;;;1.55;1.45;;;;;;;;;;612517;234;26633;-59
2022/09/28 13:39:32;;;;;;;3.70;2.58;;;;;;;;;;612558;234;26563;-60
2022/09/28 13:42:02;;;;;;;1.70;1.60;;;;;;;;;;612511;234;26845;-60
2022/09/28 13:44:31;;;;;;;1.58;1.52;;;;;;;;;;612491;234;26862;-60
2022/09/28 13:47:04;;;;;;;10.55;3.55;;;;;;;;;;612081;235;26562;-60
2022/09/28 13:49:35;;;;;;;8.48;3.37;;;;;;;;;;612225;235;26577;-60
2022/09/28 13:52:04;;;;;;;3.55;2.70;;;;;;;;;;612079;235;26571;-60
2022/09/28 13:54:37;;;;;;;10.95;4.50;;;;;;;;;;613502;231;26670;-61
2022/09/28 13:57:09;;;;;;;2.95;2.35;;;;;;;;;;614344;231;26783;-60
2022/09/28 13:59:39;;;;;;;8.60;4.30;;;;;;;;;;618577;231;26602;-60
2022/09/28 14:02:13;;;;;;;10.48;3.03;;;;;;;;;;619929;231;26566;-60
2022/09/28 14:04:48;;;;;;;2.83;2.40;;;;;;;;;;621975;230;26615;-61
2022/09/28 14:07:19;;;;;;;3.85;1.87;;;;;;;;;;614501;233;26799;-61
2022/09/28 14:09:48;;;;;;;4.40;2.10;;;;;;;;;;614012;233;26847;-61
2022/09/28 14:12:33;;;;;;;4.53;2.62;;;;;;;;;;618673;230;26639;-61
2022/09/28 14:15:02;;;;;;;3.30;2.10;;;;;;;;;;616899;230;26855;-61
2022/09/28 14:17:32;;;;;;;10.52;2.85;;;;;;;;;;613900;233;26563;-61
2022/09/28 14:20:01;;;;;;;6.62;2.20;;;;;;;;;;612843;231;26625;-61
2022/09/28 14:22:31;;;;;;;3.75;3.08;;;;;;;;;;614736;233;26854;-61
2022/09/28 14:25:04;;;;;;;4.78;2.30;;;;;;;;;;613196;230;26638;-61
2022/09/28 14:27:42;;;;;;;4.50;2.10;;;;;;;;;;617007;230;26579;-60
2022/09/28 14:30:20;;;;;;;5.25;2.20;;;;;;;;;;615691;231;26556;-61
2022/09/28 14:32:53;;;;;;;6.30;2.10;;;;;;;;;;618624;230;26601;-60
2022/09/28 14:35:24;;;;;;;4.07;2.10;;;;;;;;;;613675;234;26806;-59
2022/09/28 14:43:12;;;;;;;4.40;2.55;;;;;;;;;;615370;231;26659;-57
2022/09/28 14:45:43;;;;;;;4.95;2.10;;;;;;;;;;615661;231;26619;-58
2022/09/28 14:48:11;;;;;;;7.03;2.30;;;;;;;;;;619028;231;26826;-58
2022/09/28 14:50:40;;;;;;;7.20;3.22;;;;;;;;;;623562;230;26540;-59
2022/09/28 14:53:11;;;;;;;7.90;3.42;;;;;;;;;;614011;234;26914;-59
2022/09/28 14:55:40;;;;;;;12.40;5.80;;;;;;;;;;614886;231;26576;-58
2022/09/28 14:58:09;;;;;;;12.90;4.18;;;;;;;;;;613191;234;26562;-58
2022/09/28 15:00:38;;;;;;;21.77;5.65;;;;;;;;;;619603;231;26624;-58
2022/09/28 15:03:07;;;;;;;11.60;4.50;;;;;;;;;;613374;234;26588;-58
2022/09/28 15:05:37;;;;;;;14.95;4.80;;;;;;;;;;613582;234;26576;-58
2022/09/28 15:08:06;;;;;;;10.68;3.72;;;;;;;;;;614697;228;26588;-58